sensor_id;sensor_type;location;lat;lon;timestamp;P1;durP1;ratioP1;P2;durP2;ratioP2
21800;SDS011;11062;51.164;16.924;2022-11-30T03:36:38;83.05;;;39.80;;
21800;SDS011;11062;51.164;16.924;2022-11-30T04:40:04;99.07;;;41.00;;
21800;SDS011;11062;51.164;16.924;2022-11-30T04:42:31;90.10;;;39.35;;
21800;SDS011;11062;51.164;16.924;2022-11-30T04:44:57;86.38;;;40.90;;
21800;SDS011;11062;51.164;16.924;2022-11-30T04:47:23;86.90;;;39.35;;
21800;SDS011;11062;51.164;16.924;2022-11-30T04:49:52;92.07;;;40.33;;
21800;SDS011;11062;51.164;16.924;2022-11-30T04:52:18;96.55;;;42.38;;
21800;SDS011;11062;51.164;16.924;2022-11-30T04:54:44;90.85;;;37.38;;
21800;SDS011;11062;51.164;16.924;2022-11-30T04:57:12;92.72;;;41.60;;
21800;SDS011;11062;51.164;16.924;2022-11-30T04:59:38;98.22;;;43.08;;
21800;SDS011;11062;51.164;16.924;2022-11-30T05:02:04;103.03;;;41.10;;
21800;SDS011;11062;51.164;16.924;2022-11-30T05:04:30;96.70;;;41.53;;
21800;SDS011;11062;51.164;16.924;2022-11-30T05:06:56;94.53;;;40.83;;
21800;SDS011;11062;51.164;16.924;2022-11-30T05:09:24;100.82;;;42.10;;
21800;SDS011;11062;51.164;16.924;2022-11-30T05:11:54;106.82;;;43.90;;
21800;SDS011;11062;51.164;16.924;2022-11-30T05:14:28;104.30;;;43.10;;
21800;SDS011;11062;51.164;16.924;2022-11-30T05:16:54;103.97;;;43.22;;
21800;SDS011;11062;51.164;16.924;2022-11-30T05:19:20;99.93;;;40.53;;
21800;SDS011;11062;51.164;16.924;2022-11-30T05:21:46;93.68;;;40.92;;
21800;SDS011;11062;51.164;16.924;2022-11-30T05:24:12;100.05;;;41.47;;
21800;SDS011;11062;51.164;16.924;2022-11-30T05:26:38;92.43;;;37.50;;
21800;SDS011;11062;51.164;16.924;2022-11-30T05:29:04;94.03;;;36.90;;
21800;SDS011;11062;51.164;16.924;2022-11-30T05:31:31;94.63;;;39.47;;
21800;SDS011;11062;51.164;16.924;2022-11-30T05:33:58;98.32;;;41.40;;
21800;SDS011;11062;51.164;16.924;2022-11-30T05:36:24;92.32;;;39.47;;
21800;SDS011;11062;51.164;16.924;2022-11-30T07:21:30;86.13;;;34.58;;
21800;SDS011;11062;51.164;16.924;2022-11-30T07:23:56;85.85;;;33.30;;
21800;SDS011;11062;51.164;16.924;2022-11-30T07:26:46;82.05;;;32.70;;
21800;SDS011;11062;51.164;16.924;2022-11-30T07:29:12;87.60;;;35.60;;
21800;SDS011;11062;51.164;16.924;2022-11-30T07:31:38;79.07;;;33.05;;
21800;SDS011;11062;51.164;16.924;2022-11-30T07:34:05;93.35;;;37.95;;
21800;SDS011;11062;51.164;16.924;2022-11-30T07:36:35;94.68;;;36.88;;
21800;SDS011;11062;51.164;16.924;2022-11-30T07:39:13;106.23;;;38.90;;
21800;SDS011;11062;51.164;16.924;2022-11-30T07:41:42;88.60;;;35.45;;
21800;SDS011;11062;51.164;16.924;2022-11-30T07:44:11;95.00;;;35.85;;
21800;SDS011;11062;51.164;16.924;2022-11-30T07:46:37;91.40;;;35.53;;
21800;SDS011;11062;51.164;16.924;2022-11-30T07:49:04;87.20;;;35.63;;
21800;SDS011;11062;51.164;16.924;2022-11-30T07:51:33;86.00;;;34.28;;
21800;SDS011;11062;51.164;16.924;2022-11-30T07:53:59;88.07;;;34.65;;
21800;SDS011;11062;51.164;16.924;2022-11-30T19:44:47;48.97;;;25.88;;
21800;SDS011;11062;51.164;16.924;2022-11-30T19:47:14;45.78;;;25.77;;
21800;SDS011;11062;51.164;16.924;2022-11-30T19:49:40;47.33;;;26.65;;
21800;SDS011;11062;51.164;16.924;2022-11-30T19:52:06;47.58;;;26.27;;
21800;SDS011;11062;51.164;16.924;2022-11-30T19:54:33;49.75;;;27.60;;
21800;SDS011;11062;51.164;16.924;2022-11-30T19:57:02;48.55;;;25.92;;
21800;SDS011;11062;51.164;16.924;2022-11-30T19:59:31;45.72;;;25.55;;
21800;SDS011;11062;51.164;16.924;2022-11-30T20:01:57;52.13;;;27.02;;
21800;SDS011;11062;51.164;16.924;2022-11-30T20:04:23;45.55;;;24.50;;
21800;SDS011;11062;51.164;16.924;2022-11-30T20:06:49;46.75;;;26.45;;
21800;SDS011;11062;51.164;16.924;2022-11-30T20:09:16;47.95;;;25.10;;
21800;SDS011;11062;51.164;16.924;2022-11-30T20:11:44;46.55;;;24.83;;
21800;SDS011;11062;51.164;16.924;2022-11-30T20:14:14;50.20;;;24.90;;
21800;SDS011;11062;51.164;16.924;2022-11-30T20:16:41;47.90;;;24.70;;
21800;SDS011;11062;51.164;16.924;2022-11-30T20:19:13;48.50;;;26.13;;
21800;SDS011;11062;51.164;16.924;2022-11-30T20:21:41;45.78;;;24.85;;
21800;SDS011;11062;51.164;16.924;2022-11-30T20:24:08;47.50;;;25.00;;
21800;SDS011;11062;51.164;16.924;2022-11-30T20:26:37;51.00;;;25.50;;
21800;SDS011;11062;51.164;16.924;2022-11-30T20:29:15;46.10;;;25.80;;
21800;SDS011;11062;51.164;16.924;2022-11-30T20:31:43;49.70;;;25.77;;
21800;SDS011;11062;51.164;16.924;2022-11-30T20:34:10;45.75;;;24.88;;
21800;SDS011;11062;51.164;16.924;2022-11-30T20:36:36;49.95;;;26.27;;
21800;SDS011;11062;51.164;16.924;2022-11-30T20:39:03;46.05;;;25.08;;
21800;SDS011;11062;51.164;16.924;2022-11-30T20:41:29;41.55;;;23.83;;
21800;SDS011;11062;51.164;16.924;2022-11-30T20:43:55;48.55;;;25.45;;
21800;SDS011;11062;51.164;16.924;2022-11-30T20:46:23;48.28;;;25.15;;
21800;SDS011;11062;51.164;16.924;2022-11-30T20:48:51;50.42;;;24.73;;
21800;SDS011;11062;51.164;16.924;2022-11-30T20:51:19;52.15;;;25.75;;
21800;SDS011;11062;51.164;16.924;2022-11-30T20:53:51;51.20;;;24.35;;
21800;SDS011;11062;51.164;16.924;2022-11-30T20:56:17;43.03;;;23.35;;
21800;SDS011;11062;51.164;16.924;2022-11-30T20:58:46;46.95;;;25.13;;
21800;SDS011;11062;51.164;16.924;2022-11-30T21:01:16;41.13;;;23.33;;
21800;SDS011;11062;51.164;16.924;2022-11-30T21:03:49;46.92;;;24.45;;
21800;SDS011;11062;51.164;16.924;2022-11-30T21:06:15;46.10;;;24.67;;
21800;SDS011;11062;51.164;16.924;2022-11-30T21:08:41;53.22;;;25.65;;
21800;SDS011;11062;51.164;16.924;2022-11-30T21:11:10;47.22;;;24.30;;
21800;SDS011;11062;51.164;16.924;2022-11-30T21:13:38;45.83;;;23.35;;
21800;SDS011;11062;51.164;16.924;2022-11-30T21:16:08;47.65;;;23.50;;
21800;SDS011;11062;51.164;16.924;2022-11-30T21:18:38;43.45;;;23.23;;
21800;SDS011;11062;51.164;16.924;2022-11-30T21:21:06;45.97;;;23.77;;
21800;SDS011;11062;51.164;16.924;2022-11-30T21:23:45;43.33;;;22.95;;
21800;SDS011;11062;51.164;16.924;2022-11-30T21:26:16;49.70;;;25.02;;
21800;SDS011;11062;51.164;16.924;2022-11-30T21:28:50;48.25;;;24.85;;
21800;SDS011;11062;51.164;16.924;2022-11-30T21:31:18;46.97;;;24.35;;
21800;SDS011;11062;51.164;16.924;2022-11-30T21:33:47;51.38;;;25.17;;
21800;SDS011;11062;51.164;16.924;2022-11-30T21:36:16;51.80;;;24.75;;
21800;SDS011;11062;51.164;16.924;2022-11-30T21:38:44;46.65;;;23.60;;
21800;SDS011;11062;51.164;16.924;2022-11-30T21:41:11;53.58;;;25.85;;
21800;SDS011;11062;51.164;16.924;2022-11-30T21:43:38;45.05;;;23.15;;
21800;SDS011;11062;51.164;16.924;2022-11-30T21:46:06;49.90;;;24.17;;
21800;SDS011;11062;51.164;16.924;2022-11-30T21:48:35;48.33;;;25.33;;
21800;SDS011;11062;51.164;16.924;2022-11-30T21:51:09;50.00;;;23.05;;
21800;SDS011;11062;51.164;16.924;2022-11-30T21:53:39;49.83;;;24.58;;
21800;SDS011;11062;51.164;16.924;2022-11-30T21:56:12;56.25;;;24.77;;
21800;SDS011;11062;51.164;16.924;2022-11-30T21:58:43;45.63;;;23.00;;
21800;SDS011;11062;51.164;16.924;2022-11-30T22:01:20;45.67;;;22.98;;
21800;SDS011;11062;51.164;16.924;2022-11-30T22:03:52;44.58;;;23.33;;
21800;SDS011;11062;51.164;16.924;2022-11-30T22:06:20;45.28;;;22.75;;
21800;SDS011;11062;51.164;16.924;2022-11-30T22:08:54;40.25;;;22.52;;
21800;SDS011;11062;51.164;16.924;2022-11-30T22:11:21;44.50;;;22.35;;
21800;SDS011;11062;51.164;16.924;2022-11-30T22:13:48;44.15;;;24.17;;
21800;SDS011;11062;51.164;16.924;2022-11-30T22:16:22;45.15;;;22.67;;
21800;SDS011;11062;51.164;16.924;2022-11-30T22:18:52;45.08;;;22.85;;
21800;SDS011;11062;51.164;16.924;2022-11-30T22:21:21;43.75;;;22.88;;
21800;SDS011;11062;51.164;16.924;2022-11-30T22:23:53;45.65;;;23.23;;
21800;SDS011;11062;51.164;16.924;2022-11-30T22:26:26;41.33;;;22.70;;
21800;SDS011;11062;51.164;16.924;2022-11-30T22:28:55;35.00;;;20.50;;
21800;SDS011;11062;51.164;16.924;2022-11-30T22:31:27;41.97;;;22.25;;
21800;SDS011;11062;51.164;16.924;2022-11-30T22:33:54;44.13;;;22.05;;
21800;SDS011;11062;51.164;16.924;2022-11-30T22:36:26;42.80;;;22.30;;
21800;SDS011;11062;51.164;16.924;2022-11-30T22:38:54;41.42;;;21.10;;
21800;SDS011;11062;51.164;16.924;2022-11-30T22:41:24;44.55;;;21.27;;
21800;SDS011;11062;51.164;16.924;2022-11-30T22:43:54;41.90;;;21.90;;
21800;SDS011;11062;51.164;16.924;2022-11-30T22:46:22;50.20;;;23.38;;
21800;SDS011;11062;51.164;16.924;2022-11-30T22:48:52;42.60;;;21.52;;
21800;SDS011;11062;51.164;16.924;2022-11-30T22:51:23;42.95;;;22.67;;
21800;SDS011;11062;51.164;16.924;2022-11-30T22:53:53;44.85;;;21.95;;
21800;SDS011;11062;51.164;16.924;2022-11-30T22:56:26;46.75;;;23.98;;
21800;SDS011;11062;51.164;16.924;2022-11-30T22:58:56;40.13;;;21.77;;
21800;SDS011;11062;51.164;16.924;2022-11-30T23:01:25;36.65;;;21.85;;
21800;SDS011;11062;51.164;16.924;2022-11-30T23:04:02;40.08;;;22.25;;
21800;SDS011;11062;51.164;16.924;2022-11-30T23:06:33;47.58;;;22.55;;
21800;SDS011;11062;51.164;16.924;2022-11-30T23:09:03;44.75;;;21.95;;
21800;SDS011;11062;51.164;16.924;2022-11-30T23:11:30;41.15;;;22.27;;
21800;SDS011;11062;51.164;16.924;2022-11-30T23:13:56;40.55;;;21.63;;
21800;SDS011;11062;51.164;16.924;2022-11-30T23:16:22;43.33;;;21.98;;
21800;SDS011;11062;51.164;16.924;2022-11-30T23:18:52;39.70;;;21.88;;
21800;SDS011;11062;51.164;16.924;2022-11-30T23:21:23;40.08;;;22.80;;
21800;SDS011;11062;51.164;16.924;2022-11-30T23:23:54;49.22;;;23.40;;
21800;SDS011;11062;51.164;16.924;2022-11-30T23:26:21;44.53;;;22.95;;
21800;SDS011;11062;51.164;16.924;2022-11-30T23:28:57;45.85;;;23.17;;
21800;SDS011;11062;51.164;16.924;2022-11-30T23:31:26;42.20;;;23.58;;
21800;SDS011;11062;51.164;16.924;2022-11-30T23:33:53;41.65;;;22.35;;
